createdAt,value
2023-03-13T00:00:24.447Z,1.58
2023-03-13T00:05:27.283Z,1.20
2023-03-13T00:10:31.438Z,1.10
2023-03-13T00:15:34.784Z,1.63
2023-03-13T00:20:37.610Z,1.10
2023-03-13T00:25:41.813Z,1.13
2023-03-13T00:30:44.643Z,0.88
2023-03-13T00:35:47.565Z,1.10
2023-03-13T00:40:59.186Z,0.90
2023-03-13T00:46:02.493Z,0.88
2023-03-13T00:51:06.584Z,0.80
2023-03-13T00:56:12.656Z,0.90
2023-03-13T01:01:20.393Z,0.90
2023-03-13T01:06:25.887Z,1.20
2023-03-13T01:11:32.086Z,0.90
2023-03-13T01:16:36.960Z,1.00
2023-03-13T01:21:39.801Z,0.68
2023-03-13T01:26:44.021Z,0.70
2023-03-13T01:31:47.024Z,0.60
2023-03-13T01:36:52.279Z,0.80
2023-03-13T01:41:56.461Z,0.60
2023-03-13T01:46:59.258Z,1.00
2023-03-13T01:52:05.201Z,0.60
2023-03-13T01:57:14.915Z,0.60
2023-03-13T02:02:19.308Z,0.77
2023-03-13T02:07:28.653Z,0.70
2023-03-13T02:12:36.010Z,0.63
2023-03-13T02:17:40.648Z,0.63
2023-03-13T02:22:49.123Z,0.60
2023-03-13T02:27:56.233Z,0.70
2023-03-13T02:32:59.222Z,0.73
2023-03-13T02:38:07.254Z,0.82
2023-03-13T02:43:15.664Z,0.50
2023-03-13T02:48:18.526Z,0.60
2023-03-13T02:53:21.352Z,0.90
2023-03-13T02:58:26.661Z,0.70
2023-03-13T03:03:29.502Z,0.60
2023-03-13T03:08:32.627Z,0.50
2023-03-13T03:13:36.856Z,0.82
2023-03-13T03:18:39.958Z,0.50
2023-03-13T03:23:42.930Z,0.60
2023-03-13T03:28:47.600Z,0.90
2023-03-13T03:33:50.447Z,0.50
2023-03-13T03:38:54.094Z,0.52
2023-03-13T03:43:58.293Z,0.50
2023-03-13T03:49:01.199Z,0.50
2023-03-13T03:54:04.122Z,0.60
2023-03-13T03:59:08.325Z,0.60
2023-03-13T04:04:11.205Z,0.50
2023-03-13T04:09:14.061Z,0.60
2023-03-13T04:14:18.440Z,0.60
2023-03-13T04:19:21.262Z,0.45
2023-03-13T04:24:24.132Z,0.40
2023-03-13T04:29:28.543Z,0.50
2023-03-13T04:34:31.577Z,0.50
2023-03-13T04:39:34.426Z,0.40
2023-03-13T04:44:38.831Z,0.50
2023-03-13T04:49:41.627Z,0.45
2023-03-13T04:54:44.476Z,0.50
2023-03-13T04:59:48.846Z,0.45
2023-03-13T05:04:52.385Z,0.40
2023-03-13T05:09:55.344Z,0.50
2023-03-13T05:14:59.584Z,0.40
2023-03-13T05:20:02.390Z,0.40
2023-03-13T05:25:06.097Z,0.45
2023-03-13T05:30:12.017Z,0.40
2023-03-13T05:35:14.986Z,0.30
2023-03-13T05:40:18.095Z,0.60
2023-03-13T05:45:22.259Z,0.30
2023-03-13T05:50:25.412Z,0.57
2023-03-13T05:55:28.232Z,0.85
2023-03-13T06:00:32.455Z,0.40
2023-03-13T06:05:35.281Z,0.70
2023-03-13T06:10:38.095Z,1.02
2023-03-13T06:15:42.381Z,1.83
2023-03-13T06:20:45.382Z,1.40
2023-03-13T06:25:49.306Z,1.17
2023-03-13T06:30:53.460Z,0.90
2023-03-13T06:35:57.136Z,0.98
2023-03-13T06:41:00.199Z,1.00
2023-03-13T06:46:06.398Z,0.80
2023-03-13T06:51:12.720Z,6.40
2023-03-13T06:56:15.845Z,3.85
2023-03-13T07:01:20.184Z,2.72
2023-03-13T07:06:24.724Z,3.20
2023-03-13T07:11:27.554Z,2.88
2023-03-13T07:16:31.885Z,2.83
2023-03-13T07:21:34.748Z,2.90
2023-03-13T07:26:37.672Z,2.97
2023-03-13T07:31:41.932Z,3.10
2023-03-13T07:36:44.889Z,2.45
2023-03-13T07:41:47.814Z,2.50
2023-03-13T07:46:52.088Z,2.95
2023-03-13T07:51:55.004Z,2.95
2023-03-13T07:56:57.815Z,2.40
2023-03-13T08:02:02.650Z,2.33
2023-03-13T08:07:09.513Z,2.22
2023-03-13T08:12:12.409Z,3.22
2023-03-13T08:17:16.600Z,2.63
2023-03-13T08:22:19.408Z,2.42
2023-03-13T08:27:22.257Z,2.63
2023-03-13T08:32:26.512Z,2.25
2023-03-13T08:37:29.410Z,3.03
2023-03-13T08:42:32.263Z,2.47
2023-03-13T08:47:36.497Z,2.58
2023-03-13T08:52:39.345Z,2.72
2023-03-13T08:57:42.162Z,2.38
2023-03-13T09:02:46.475Z,2.78
2023-03-13T09:07:49.754Z,2.30
2023-03-13T09:12:52.562Z,2.75
2023-03-13T09:17:56.770Z,2.80
2023-03-13T09:22:59.596Z,2.90
2023-03-13T09:28:02.398Z,2.20
2023-03-13T09:33:06.688Z,2.13
2023-03-13T09:38:09.597Z,2.30
2023-03-13T09:43:25.882Z,1.80
2023-03-13T09:48:34.765Z,2.10
2023-03-13T09:53:42.702Z,1.92
2023-03-13T09:58:52.858Z,2.05
2023-03-13T10:04:05.631Z,1.70
2023-03-13T10:09:20.242Z,2.08
2023-03-13T10:14:30.940Z,2.22
2023-03-13T10:19:38.423Z,1.95
2023-03-13T10:24:47.850Z,1.73
2023-03-13T10:29:50.782Z,2.20
2023-03-13T10:34:58.381Z,1.60
2023-03-13T10:40:15.754Z,1.60
2023-03-13T10:45:24.994Z,1.58
2023-03-13T10:50:34.567Z,1.50
2023-03-13T10:55:43.893Z,1.75
2023-03-13T11:00:46.937Z,1.50
2023-03-13T11:05:58.942Z,1.38
2023-03-13T11:11:03.669Z,1.60
2023-03-13T11:16:18.983Z,1.40
2023-03-13T11:21:31.064Z,1.60
2023-03-13T11:26:37.961Z,1.25
2023-03-13T11:31:43.503Z,1.50
2023-03-13T11:36:53.667Z,1.65
2023-03-13T11:42:01.391Z,1.42
2023-03-13T11:47:19.832Z,1.23
2023-03-13T11:52:36.615Z,1.40
2023-03-13T11:57:45.135Z,1.65
2023-03-13T12:02:52.837Z,1.58
2023-03-13T12:08:03.548Z,1.40
2023-03-13T12:13:12.887Z,1.38
2023-03-13T12:18:20.293Z,1.20
2023-03-13T12:23:30.020Z,1.30
2023-03-13T12:28:38.633Z,1.23
2023-03-13T12:33:46.316Z,1.30
2023-03-13T12:38:56.553Z,1.50
2023-03-13T12:44:09.200Z,1.10
2023-03-13T12:49:48.403Z,1.20
2023-03-13T12:55:03.602Z,1.05
2023-03-13T13:00:17.732Z,1.33
2023-03-13T13:05:22.940Z,1.50
2023-03-13T13:10:28.474Z,1.33
2023-03-13T13:15:31.651Z,1.30
2023-03-13T13:20:46.466Z,1.13
2023-03-13T13:25:51.555Z,1.42
2023-03-13T13:30:56.583Z,1.10
2023-03-13T13:36:30.814Z,1.38
2023-03-13T13:41:41.169Z,1.20
2023-03-13T13:46:46.761Z,1.17
2023-03-13T13:52:38.146Z,1.10
2023-03-13T13:57:44.097Z,1.20
2023-03-13T14:02:52.012Z,1.38
2023-03-13T14:08:01.517Z,1.23
2023-03-13T14:13:13.913Z,1.10
2023-03-13T14:18:24.574Z,1.00
2023-03-13T14:23:34.757Z,1.17
2023-03-13T14:28:41.976Z,1.10
2023-03-13T14:33:44.856Z,1.25
2023-03-13T14:38:55.723Z,1.10
2023-03-13T14:44:06.331Z,1.17
2023-03-13T14:49:15.919Z,0.98
2023-03-13T14:54:31.173Z,1.02
2023-03-13T14:59:35.470Z,1.20
2023-03-13T15:04:52.719Z,1.00
2023-03-13T15:09:55.676Z,1.02
2023-03-13T15:14:59.867Z,1.17
2023-03-13T15:20:02.932Z,1.00
2023-03-13T15:25:15.487Z,1.10
2023-03-13T15:30:23.847Z,0.98
2023-03-13T15:35:30.157Z,1.00
2023-03-13T15:40:33.071Z,1.00
2023-03-13T15:45:38.872Z,0.98
2023-03-13T15:50:41.748Z,0.98
2023-03-13T15:55:44.592Z,1.02
2023-03-13T16:00:49.324Z,1.10
2023-03-13T16:05:53.033Z,0.95
2023-03-13T16:10:56.732Z,1.15
2023-03-13T16:16:00.899Z,1.23
2023-03-13T16:21:03.726Z,0.90
2023-03-13T16:26:11.572Z,1.00
2023-03-13T16:31:20.229Z,1.00
2023-03-13T16:36:25.142Z,1.15
2023-03-13T16:41:29.266Z,1.00
2023-03-13T16:46:37.138Z,1.25
2023-03-13T16:51:41.015Z,1.40
2023-03-13T16:56:44.997Z,4.55
2023-03-13T17:01:49.431Z,13.50
2023-03-13T17:06:52.892Z,18.65
2023-03-13T17:11:55.811Z,22.58
2023-03-13T17:17:00.254Z,25.27
2023-03-13T17:22:03.952Z,26.98
2023-03-13T17:27:11.066Z,25.88
2023-03-13T17:32:16.198Z,22.15
2023-03-13T17:37:20.801Z,21.30
2023-03-13T17:42:23.673Z,20.13
2023-03-13T17:47:28.697Z,19.95
2023-03-13T17:52:31.695Z,20.55
2023-03-13T17:57:34.727Z,19.98
2023-03-13T18:02:39.109Z,20.08
2023-03-13T18:07:44.218Z,19.40
2023-03-13T18:12:47.872Z,19.25
2023-03-13T18:17:52.816Z,19.35
2023-03-13T18:22:59.601Z,17.58
2023-03-13T18:28:02.630Z,15.48
2023-03-13T18:33:06.852Z,15.40
2023-03-13T18:38:13.776Z,14.02
2023-03-13T18:43:16.609Z,11.25
2023-03-13T18:48:20.772Z,11.07
2023-03-13T18:53:26.056Z,10.80
2023-03-13T18:58:29.094Z,9.85
2023-03-13T19:03:33.285Z,11.02
2023-03-13T19:08:36.142Z,9.05
2023-03-13T19:13:38.978Z,9.85
2023-03-13T19:18:43.890Z,9.18
2023-03-13T19:23:46.878Z,8.98
2023-03-13T19:28:49.743Z,9.55
2023-03-13T19:33:54.412Z,8.23
2023-03-13T19:38:57.232Z,7.93
2023-03-13T19:44:00.109Z,8.05
2023-03-13T19:49:05.067Z,7.38
2023-03-13T19:54:10.243Z,7.63
2023-03-13T19:59:16.522Z,7.50
2023-03-13T20:04:20.716Z,7.07
2023-03-13T20:09:23.745Z,6.20
2023-03-13T20:14:26.569Z,6.90
2023-03-13T20:19:30.773Z,6.38
2023-03-13T20:24:34.369Z,6.47
2023-03-13T20:29:37.235Z,5.45
2023-03-13T20:34:41.415Z,6.10
2023-03-13T20:39:44.261Z,5.55
2023-03-13T20:44:47.082Z,5.50
2023-03-13T20:49:51.289Z,5.45
2023-03-13T20:54:54.244Z,5.35
2023-03-13T20:59:57.175Z,4.60
2023-03-13T21:05:01.424Z,5.05
2023-03-13T21:10:05.093Z,5.07
2023-03-13T21:15:09.780Z,4.55
2023-03-13T21:20:14.609Z,4.55
2023-03-13T21:25:18.535Z,3.90
2023-03-13T21:30:22.672Z,3.65
2023-03-13T21:35:27.349Z,3.70
2023-03-13T21:40:30.275Z,3.60
2023-03-13T21:45:34.786Z,3.70
2023-03-13T21:50:39.033Z,3.60
2023-03-13T21:55:41.841Z,3.30
2023-03-13T22:00:44.863Z,4.72
2023-03-13T22:05:49.430Z,4.50
2023-03-13T22:10:54.819Z,3.67
2023-03-13T22:15:57.706Z,3.38
2023-03-13T22:21:01.950Z,3.13
2023-03-13T22:26:05.052Z,3.08
2023-03-13T22:31:08.926Z,3.47
2023-03-13T22:36:14.025Z,3.08
2023-03-13T22:41:18.267Z,3.35
2023-03-13T22:46:21.090Z,3.08
2023-03-13T22:51:25.226Z,2.75
2023-03-13T22:56:28.070Z,2.10
2023-03-13T23:01:31.118Z,7.25
2023-03-13T23:06:35.289Z,3.58
2023-03-13T23:11:38.436Z,2.38
2023-03-13T23:16:41.292Z,2.60
2023-03-13T23:21:45.444Z,2.95
2023-03-13T23:26:48.354Z,2.50
2023-03-13T23:31:52.750Z,3.00
2023-03-13T23:36:57.967Z,2.35
2023-03-13T23:42:00.822Z,1.88
2023-03-13T23:47:03.688Z,2.10
2023-03-13T23:52:08.865Z,2.10
2023-03-13T23:57:11.703Z,2.00
